Linxi, China
Current Conditions -  °F | °C
As of 9:30 AM on Thursday 23 Oct 2014 (Local Time) from ZBAA Reporting Station
Clear Clear  
Wind Chill: 57°   Ceiling: Unl
Heat Index: 57°   Visibility: 4mi
Dew Point: 45°   Wind: 4mph
Humidity: 63%   Direction: 340°NNW
Pressure: 30.03"   Gusts: NA
Location:  43.6°N, 118.07°E
Report Text: ZBAA 230130Z 34002MPS 6000 NSC 14/07 Q1017 NOSIG
Loading
Personal Weather Stations






























Interactive Weather Map
Tropical Storm Tracking
New forecast layout! Learn more

10-Day Weather Forecast

Advertisements
Track Severe Weather on mobile